Time;durP1;ratioP1;P1;durP2;ratioP2;P2;SDS_P1;SDS_P2;PMS_P1;PMS_P2;Temp;Humidity;BMP_temperature;BMP_pressure;BME280_temperature;BME280_humidity;BME280_pressure;Samples;Min_cycle;Max_cycle;Signal;HPM_P1;HPM_P2
2023/10/03 00:00:31;;;;;;;;;;;15.30;99.90;;;;;;21135967;28;19930;-82
2023/10/03 00:10:33;;;;;;;;;;;15.10;99.90;;;;;;21083583;28;20391;-82
2023/10/03 00:20:34;;;;;;;;;;;15.10;99.90;;;;;;21117395;28;19912;-82
2023/10/03 00:30:35;;;;;;;;;;;14.80;99.90;;;;;;21121259;28;19924;-82
2023/10/03 00:40:36;;;;;;;;;;;14.80;99.90;;;;;;21117604;28;19912;-80
2023/10/03 00:50:38;;;;;;;;;;;14.70;99.90;;;;;;21130542;28;20295;-83
2023/10/03 01:00:45;;;;;;;;;;;14.50;99.90;;;;;;21116521;28;19943;-80
2023/10/03 01:10:46;;;;;;;;;;;14.40;99.90;;;;;;21066256;28;19916;-81
2023/10/03 01:20:50;;;;;;;;;;;14.30;99.90;;;;;;21086024;28;19920;-82
2023/10/03 01:30:51;;;;;;;;;;;14.30;99.90;;;;;;21119391;28;19970;-82
2023/10/03 01:40:52;;;;;;;;;;;14.10;99.90;;;;;;21122650;28;19913;-82
2023/10/03 01:50:52;;;;;;;;;;;14.10;99.90;;;;;;21127290;28;19923;-81
2023/10/03 02:00:53;;;;;;;;;;;14.00;99.90;;;;;;21126754;28;19923;-80
2023/10/03 02:10:55;;;;;;;;;;;13.90;99.90;;;;;;21127256;28;20265;-82
2023/10/03 02:21:03;;;;;;;;;;;13.90;99.90;;;;;;21126064;28;19920;-81
2023/10/03 02:31:07;;;;;;;;;;;13.70;99.90;;;;;;21117094;28;19927;-81
2023/10/03 02:41:12;;;;;;;;;;;13.70;99.90;;;;;;21124369;28;19919;-82
2023/10/03 02:51:14;;;;;;;;;;;13.70;99.90;;;;;;21124482;28;19965;-80
2023/10/03 03:01:17;;;;;;;;;;;13.50;99.90;;;;;;21088889;28;20279;-81
2023/10/03 03:11:18;;;;;;;;;;;13.50;99.90;;;;;;21103411;28;20022;-80
2023/10/03 03:21:21;;;;;;;;;;;13.30;99.90;;;;;;21063975;28;19923;-82
2023/10/03 03:31:22;;;;;;;;;;;13.20;99.90;;;;;;21026239;28;19923;-81
2023/10/03 03:41:23;;;;;;;;;;;13.20;99.90;;;;;;21071285;28;19912;-83
2023/10/03 03:51:24;;;;;;;;;;;12.90;99.90;;;;;;21118421;28;20037;-82
2023/10/03 04:01:24;;;;;;;;;;;13.00;99.90;;;;;;21117337;28;20014;-80
2023/10/03 04:11:25;;;;;;;;;;;12.60;99.90;;;;;;21088747;28;20252;-81
2023/10/03 04:21:28;;;;;;;;;;;12.40;99.90;;;;;;21119436;28;19923;-82
2023/10/03 04:31:28;;;;;;;;;;;12.30;99.90;;;;;;21086317;28;19958;-78
2023/10/03 04:41:29;;;;;;;;;;;12.30;99.90;;;;;;21114220;28;20342;-80
2023/10/03 04:51:30;;;;;;;;;;;12.10;99.90;;;;;;21110900;28;19916;-82
2023/10/03 05:01:32;;;;;;;;;;;12.20;99.90;;;;;;21108506;28;19912;-79
2023/10/03 05:11:32;;;;;;;;;;;12.20;99.90;;;;;;21067199;28;20418;-82
2023/10/03 05:21:33;;;;;;;;;;;12.00;99.90;;;;;;21095010;28;19923;-80
2023/10/03 05:31:40;;;;;;;;;;;12.10;99.90;;;;;;21107778;28;19923;-81
2023/10/03 05:41:42;;;;;;;;;;;12.10;99.90;;;;;;21062180;28;19912;-80
2023/10/03 05:51:43;;;;;;;;;;;12.10;99.90;;;;;;21067055;28;19923;-79
2023/10/03 06:01:46;;;;;;;;;;;12.30;99.90;;;;;;21025847;28;20134;-79
2023/10/03 06:11:47;;;;;;;;;;;12.50;99.90;;;;;;21053319;28;20009;-80
2023/10/03 06:21:47;;;;;;;;;;;13.00;99.90;;;;;;21051503;28;20322;-78
2023/10/03 06:31:48;;;;;;;;;;;13.10;99.90;;;;;;21052990;28;19921;-80
2023/10/03 06:41:50;;;;;;;;;;;13.70;99.90;;;;;;21107434;28;19947;-80
2023/10/03 06:51:56;;;;;;;;;;;14.40;99.90;;;;;;21104499;28;19991;-82
2023/10/03 07:01:56;;;;;;;;;;;15.20;99.90;;;;;;21079996;28;19920;-80
2023/10/03 07:11:58;;;;;;;;;;;15.90;99.90;;;;;;21069877;28;19916;-79
2023/10/03 07:21:59;;;;;;;;;;;17.10;99.90;;;;;;21078324;28;19916;-81
2023/10/03 07:31:59;;;;;;;;;;;18.10;99.90;;;;;;21092002;28;20004;-79
2023/10/03 07:42:01;;;;;;;;;;;18.40;99.90;;;;;;21105927;28;19912;-79
2023/10/03 07:52:04;;;;;;;;;;;18.50;99.90;;;;;;21100791;28;19920;-80
2023/10/03 08:02:05;;;;;;;;;;;19.70;99.90;;;;;;21090412;28;19958;-81
2023/10/03 08:12:11;;;;;;;;;;;19.90;99.90;;;;;;21100056;28;19915;-81
2023/10/03 08:22:15;;;;;;;;;;;20.50;99.90;;;;;;21114641;28;20371;-80
2023/10/03 08:32:16;;;;;;;;;;;21.40;99.90;;;;;;21099681;28;20011;-79
2023/10/03 08:42:20;;;;;;;;;;;22.30;99.90;;;;;;21086323;28;19912;-79
2023/10/03 08:52:21;;;;;;;;;;;23.50;99.90;;;;;;21075043;28;19916;-81
2023/10/03 09:02:24;;;;;;;;;;;24.40;99.90;;;;;;21090342;28;19923;-81
2023/10/03 09:12:25;;;;;;;;;;;25.50;99.90;;;;;;21114472;28;19920;-80
2023/10/03 09:22:32;;;;;;;;;;;26.60;99.90;;;;;;21060225;28;19935;-80
2023/10/03 09:32:39;;;;;;;;;;;27.30;99.90;;;;;;21115156;28;19916;-80
2023/10/03 09:42:47;;;;;;;;;;;28.30;99.90;;;;;;21100643;28;19955;-81
2023/10/03 09:52:50;;;;;;;;;;;28.40;99.90;;;;;;21107362;28;19916;-81
2023/10/03 10:02:55;;;;;;;;;;;26.90;99.90;;;;;;21114896;28;20129;-81
2023/10/03 10:13:28;;;;;;;;;;;27.20;99.90;;;;;;21101715;28;20304;-79
2023/10/03 10:23:28;;;;;;;;;;;27.00;99.90;;;;;;21100878;28;19916;-80
2023/10/03 10:33:29;;;;;;;;;;;27.60;99.90;;;;;;21071410;28;20015;-80
2023/10/03 10:43:32;;;;;;;;;;;27.60;99.90;;;;;;21082286;28;20299;-80
2023/10/03 10:53:40;;;;;;;;;;;27.70;99.90;;;;;;21048059;28;19927;-80
2023/10/03 11:03:43;;;;;;;;;;;27.70;99.90;;;;;;21065929;28;19916;-81
2023/10/03 11:13:48;;;;;;;;;;;28.40;99.90;;;;;;21106340;28;19938;-81
2023/10/03 11:24:28;;;;;;;;;;;28.60;99.90;;;;;;21056814;28;20176;-80
2023/10/03 11:34:31;;;;;;;;;;;29.00;99.50;;;;;;20828117;28;19917;-81
2023/10/03 11:44:32;;;;;;;;;;;28.00;99.90;;;;;;20832062;28;20019;-79
2023/10/03 11:54:33;;;;;;;;;;;28.30;99.90;;;;;;20819724;28;20419;-78
2023/10/03 12:04:38;;;;;;;;;;;28.40;99.90;;;;;;21013246;28;19923;-80
2023/10/03 12:14:42;;;;;;;;;;;28.00;99.90;;;;;;21090295;28;20355;-79
2023/10/03 12:24:43;;;;;;;;;;;28.70;99.90;;;;;;21087770;28;19927;-80
2023/10/03 12:34:43;;;;;;;;;;;27.90;99.90;;;;;;21095598;28;19916;-79
2023/10/03 12:44:44;;;;;;;;;;;27.70;99.90;;;;;;21098553;28;19913;-79
2023/10/03 12:54:45;;;;;;;;;;;26.50;99.90;;;;;;21107191;28;19923;-79
2023/10/03 13:04:47;;;;;;;;;;;26.40;99.90;;;;;;21127914;28;19912;-80
2023/10/03 13:14:48;;;;;;;;;;;25.30;99.90;;;;;;21127458;28;19916;-79
2023/10/03 13:24:49;;;;;;;;;;;24.50;99.90;;;;;;21120392;28;20318;-80
2023/10/03 13:34:49;;;;;;;;;;;24.20;99.90;;;;;;21125824;28;19919;-80
2023/10/03 13:44:53;;;;;;;;;;;24.10;99.90;;;;;;21117049;28;19979;-79
2023/10/03 13:54:59;;;;;;;;;;;23.70;99.90;;;;;;21125253;28;19938;-80
2023/10/03 14:05:06;;;;;;;;;;;23.30;99.90;;;;;;21044062;28;20438;-79
2023/10/03 14:15:09;;;;;;;;;;;23.10;99.90;;;;;;21070616;28;19916;-80
2023/10/03 14:25:11;;;;;;;;;;;22.90;99.90;;;;;;21100421;28;19922;-79
2023/10/03 14:35:12;;;;;;;;;;;22.60;99.90;;;;;;21083085;28;19916;-80
2023/10/03 14:45:13;;;;;;;;;;;22.50;99.90;;;;;;21113131;28;19912;-78
2023/10/03 14:55:16;;;;;;;;;;;22.30;99.90;;;;;;21117922;28;19920;-81
2023/10/03 15:05:17;;;;;;;;;;;22.30;99.90;;;;;;21078290;28;19912;-82
2023/10/03 15:15:19;;;;;;;;;;;22.20;99.90;;;;;;21094765;28;19931;-80
2023/10/03 15:25:19;;;;;;;;;;;22.20;99.90;;;;;;21081854;28;19921;-80
2023/10/03 15:35:20;;;;;;;;;;;22.40;99.90;;;;;;21112265;28;19916;-80
2023/10/03 15:45:21;;;;;;;;;;;22.40;99.90;;;;;;21100347;28;19961;-78
2023/10/03 15:55:22;;;;;;;;;;;22.50;99.90;;;;;;21038917;28;19975;-80
2023/10/03 16:05:24;;;;;;;;;;;22.20;99.90;;;;;;21098272;28;19919;-79
2023/10/03 16:15:24;;;;;;;;;;;21.90;99.90;;;;;;21066887;28;19920;-81
2023/10/03 16:25:26;;;;;;;;;;;21.10;99.90;;;;;;21096614;28;19952;-79
2023/10/03 16:35:26;;;;;;;;;;;20.70;99.90;;;;;;21067259;28;19951;-78
2023/10/03 16:45:29;;;;;;;;;;;20.40;99.90;;;;;;21072832;28;19913;-77
2023/10/03 16:55:32;;;;;;;;;;;20.00;99.90;;;;;;21062054;28;20303;-78
2023/10/03 17:05:35;;;;;;;;;;;19.30;99.90;;;;;;21003342;28;19912;-80
2023/10/03 17:15:35;;;;;;;;;;;19.10;99.90;;;;;;21006305;28;20371;-80
2023/10/03 17:25:40;;;;;;;;;;;18.50;99.90;;;;;;21042771;28;19962;-78
2023/10/03 17:35:42;;;;;;;;;;;18.20;99.90;;;;;;21044969;28;19939;-80
2023/10/03 17:45:43;;;;;;;;;;;18.10;99.90;;;;;;21022211;28;19912;-80
2023/10/03 17:55:43;;;;;;;;;;;17.50;99.90;;;;;;20977090;28;19955;-79
2023/10/03 18:05:44;;;;;;;;;;;16.20;99.90;;;;;;20965306;28;20011;-79
2023/10/03 18:15:45;;;;;;;;;;;16.50;99.90;;;;;;20980649;28;19959;-79
2023/10/03 18:25:45;;;;;;;;;;;16.50;99.90;;;;;;20962823;28;19916;-80
2023/10/03 18:35:46;;;;;;;;;;;16.20;99.90;;;;;;20960223;28;19966;-78
2023/10/03 18:45:47;;;;;;;;;;;16.20;99.90;;;;;;20970578;28;20282;-79
2023/10/03 18:55:50;;;;;;;;;;;16.00;99.90;;;;;;20992371;28;19927;-79
2023/10/03 19:05:50;;;;;;;;;;;15.60;99.90;;;;;;20979586;28;19912;-79
2023/10/03 19:15:51;;;;;;;;;;;15.60;99.90;;;;;;20979959;28;19922;-79
2023/10/03 19:25:52;;;;;;;;;;;15.40;99.90;;;;;;20967065;28;19916;-79
2023/10/03 19:35:53;;;;;;;;;;;15.40;99.90;;;;;;20961008;28;19916;-79
2023/10/03 19:45:54;;;;;;;;;;;15.20;99.90;;;;;;20945850;28;20367;-79
2023/10/03 19:55:57;;;;;;;;;;;15.40;99.90;;;;;;20978583;28;19961;-78
2023/10/03 20:05:58;;;;;;;;;;;15.20;99.90;;;;;;20978727;28;19912;-80
2023/10/03 20:15:59;;;;;;;;;;;15.20;99.90;;;;;;20977227;28;19916;-80
2023/10/03 20:26:00;;;;;;;;;;;15.20;99.90;;;;;;20993197;28;19923;-80
2023/10/03 20:36:01;;;;;;;;;;;15.00;99.90;;;;;;21005123;28;19924;-80
2023/10/03 20:46:12;;;;;;;;;;;14.30;99.90;;;;;;20995267;28;20386;-78
2023/10/03 20:56:14;;;;;;;;;;;14.10;99.90;;;;;;21006622;28;19916;-78
2023/10/03 21:06:14;;;;;;;;;;;13.60;99.90;;;;;;21000163;28;19988;-77
2023/10/03 21:16:15;;;;;;;;;;;13.50;99.90;;;;;;21008370;28;19924;-80
2023/10/03 21:26:16;;;;;;;;;;;13.30;99.90;;;;;;20984795;28;19988;-79
2023/10/03 21:36:18;;;;;;;;;;;12.60;99.90;;;;;;21033161;28;19916;-80
2023/10/03 21:46:18;;;;;;;;;;;12.50;99.90;;;;;;21017341;28;19912;-79
2023/10/03 21:56:19;;;;;;;;;;;12.40;99.90;;;;;;20976208;28;20016;-81
2023/10/03 22:06:20;;;;;;;;;;;12.40;99.90;;;;;;20988959;28;20011;-80
2023/10/03 22:16:20;;;;;;;;;;;11.90;99.90;;;;;;20985881;28;19932;-80
2023/10/03 22:26:21;;;;;;;;;;;12.20;99.90;;;;;;20981124;28;19971;-81
2023/10/03 22:36:24;;;;;;;;;;;12.70;99.90;;;;;;20969171;28;19917;-80
2023/10/03 22:46:25;;;;;;;;;;;12.10;99.90;;;;;;20971485;28;19913;-80
2023/10/03 22:56:25;;;;;;;;;;;12.00;99.90;;;;;;20974835;28;19927;-80
2023/10/03 23:06:26;;;;;;;;;;;12.30;99.90;;;;;;20971711;28;19974;-80
2023/10/03 23:16:27;;;;;;;;;;;11.80;99.90;;;;;;20963691;28;19917;-80
2023/10/03 23:26:31;;;;;;;;;;;11.70;99.90;;;;;;20962734;28;19917;-78
2023/10/03 23:36:32;;;;;;;;;;;11.70;99.90;;;;;;20955714;28;19967;-78
2023/10/03 23:46:34;;;;;;;;;;;11.90;99.90;;;;;;20967359;28;19971;-80
2023/10/03 23:56:38;;;;;;;;;;;11.90;99.90;;;;;;20962871;28;19921;-79
